Time;durP1;ratioP1;P1;durP2;ratioP2;P2;SDS_P1;SDS_P2;PMS_P1;PMS_P2;Temp;Humidity;BMP_temperature;BMP_pressure;BME280_temperature;BME280_humidity;BME280_pressure;Samples;Min_cycle;Max_cycle;Signal;HPM_P1;HPM_P2
2021/08/17 00:02:29;;;;;;;8.68;3.70;;;;;;;;;;5083858;27;20397;-61
2021/08/17 00:04:55;;;;;;;8.95;3.45;;;;;;;;;;5085569;28;20142;-60
2021/08/17 00:07:22;;;;;;;9.88;3.83;;;;;;;;;;5087144;28;20086;-61
2021/08/17 00:09:47;;;;;;;8.98;3.50;;;;;;;;;;5083055;28;20028;-61
2021/08/17 00:12:13;;;;;;;8.05;3.42;;;;;;;;;;5087932;28;20035;-61
2021/08/17 00:14:38;;;;;;;8.95;3.20;;;;;;;;;;5083706;28;20032;-61
2021/08/17 00:17:08;;;;;;;8.85;3.72;;;;;;;;;;5085501;28;20392;-61
2021/08/17 00:19:34;;;;;;;8.30;3.08;;;;;;;;;;5082653;28;20385;-61
2021/08/17 00:21:59;;;;;;;7.22;2.72;;;;;;;;;;5082629;28;20023;-60
2021/08/17 00:24:24;;;;;;;6.63;3.20;;;;;;;;;;5083772;28;20074;-61
2021/08/17 00:26:50;;;;;;;9.10;3.05;;;;;;;;;;5083625;28;20024;-61
2021/08/17 00:29:15;;;;;;;6.93;3.03;;;;;;;;;;5085101;28;20028;-60
2021/08/17 00:31:41;;;;;;;7.70;3.47;;;;;;;;;;5081780;28;20103;-60
2021/08/17 00:34:06;;;;;;;8.07;3.17;;;;;;;;;;5083653;28;20028;-61
2021/08/17 00:36:31;;;;;;;6.30;3.17;;;;;;;;;;5083762;28;20036;-61
2021/08/17 00:38:59;;;;;;;6.00;2.63;;;;;;;;;;5085685;28;20058;-61
2021/08/17 00:41:25;;;;;;;5.95;3.45;;;;;;;;;;5086452;28;20123;-60
2021/08/17 00:43:51;;;;;;;7.47;3.30;;;;;;;;;;5082199;28;20135;-61
2021/08/17 00:46:16;;;;;;;8.30;3.35;;;;;;;;;;5083957;28;20226;-61
2021/08/17 00:48:42;;;;;;;7.03;3.25;;;;;;;;;;5082824;28;20064;-61
2021/08/17 00:51:08;;;;;;;6.70;2.90;;;;;;;;;;5083808;28;20359;-61
2021/08/17 00:53:35;;;;;;;6.45;3.17;;;;;;;;;;5082986;28;20547;-61
2021/08/17 00:56:01;;;;;;;8.70;3.20;;;;;;;;;;5082889;28;20538;-61
2021/08/17 00:58:27;;;;;;;8.18;3.17;;;;;;;;;;5082782;28;20040;-61
2021/08/17 01:00:53;;;;;;;9.10;3.63;;;;;;;;;;5081178;28;20024;-61
2021/08/17 01:03:18;;;;;;;7.72;3.55;;;;;;;;;;5083155;28;20414;-61
2021/08/17 01:05:44;;;;;;;7.90;3.50;;;;;;;;;;5085013;28;20039;-61
2021/08/17 01:08:09;;;;;;;8.52;3.75;;;;;;;;;;5084536;28;20115;-61
2021/08/17 01:10:37;;;;;;;7.72;3.50;;;;;;;;;;5085110;28;20031;-61
2021/08/17 01:13:03;;;;;;;8.48;3.30;;;;;;;;;;5073961;28;20123;-61
2021/08/17 01:15:28;;;;;;;8.88;2.97;;;;;;;;;;5072442;28;20119;-61
2021/08/17 01:17:54;;;;;;;10.93;4.30;;;;;;;;;;5070269;28;20111;-61
2021/08/17 01:20:19;;;;;;;10.82;4.28;;;;;;;;;;5067410;28;20257;-61
2021/08/17 01:22:47;;;;;;;10.20;4.50;;;;;;;;;;5067412;28;20032;-61
2021/08/17 01:25:13;;;;;;;10.98;3.95;;;;;;;;;;5068018;28;20067;-61
2021/08/17 01:27:40;;;;;;;10.55;4.25;;;;;;;;;;5068532;28;20432;-60
2021/08/17 01:30:07;;;;;;;10.27;4.18;;;;;;;;;;5071052;28;20039;-61
2021/08/17 01:32:32;;;;;;;10.63;4.95;;;;;;;;;;5072338;28;20032;-61
2021/08/17 01:34:58;;;;;;;11.20;4.30;;;;;;;;;;5071651;28;20100;-61
2021/08/17 01:37:23;;;;;;;10.50;4.43;;;;;;;;;;5069330;28;20057;-60
2021/08/17 01:40:06;;;;;;;10.18;4.03;;;;;;;;;;5073110;28;20793;-61
2021/08/17 01:42:32;;;;;;;12.63;4.40;;;;;;;;;;5067971;28;20098;-61
2021/08/17 01:44:59;;;;;;;10.52;4.10;;;;;;;;;;5068738;28;20033;-61
2021/08/17 01:47:28;;;;;;;11.35;4.53;;;;;;;;;;5070170;28;20035;-61
2021/08/17 01:49:54;;;;;;;10.93;4.22;;;;;;;;;;5066711;28;20068;-61
2021/08/17 01:52:20;;;;;;;11.35;4.35;;;;;;;;;;5071357;28;20048;-61
2021/08/17 01:54:45;;;;;;;10.07;4.00;;;;;;;;;;5068121;28;20404;-61
2021/08/17 01:57:10;;;;;;;13.43;4.35;;;;;;;;;;5068536;28;20397;-61
2021/08/17 01:59:36;;;;;;;11.90;4.18;;;;;;;;;;5069670;28;20032;-61
2021/08/17 02:02:02;;;;;;;12.52;4.70;;;;;;;;;;5067042;28;20112;-61
2021/08/17 02:04:28;;;;;;;11.88;4.38;;;;;;;;;;5069421;28;20111;-60
2021/08/17 02:06:54;;;;;;;10.85;4.03;;;;;;;;;;5068496;28;20035;-61
2021/08/17 02:09:20;;;;;;;9.60;3.92;;;;;;;;;;5070305;28;20035;-61
2021/08/17 02:11:45;;;;;;;10.60;4.50;;;;;;;;;;5067381;28;20028;-61
2021/08/17 02:14:11;;;;;;;12.15;4.22;;;;;;;;;;5070573;28;20024;-61
2021/08/17 02:16:36;;;;;;;10.40;4.55;;;;;;;;;;5067996;28;20058;-60
2021/08/17 02:19:02;;;;;;;10.95;4.63;;;;;;;;;;5067694;28;20028;-60
2021/08/17 02:21:27;;;;;;;14.00;5.05;;;;;;;;;;5066159;28;20439;-60
2021/08/17 02:23:53;;;;;;;15.38;5.40;;;;;;;;;;5066974;28;20040;-60
2021/08/17 02:26:18;;;;;;;11.98;4.53;;;;;;;;;;5068933;28;20028;-60
2021/08/17 02:28:43;;;;;;;11.30;4.47;;;;;;;;;;5069680;28;20025;-60
2021/08/17 02:31:09;;;;;;;10.65;4.60;;;;;;;;;;5065731;28;20546;-60
2021/08/17 02:33:34;;;;;;;11.65;4.68;;;;;;;;;;5064273;28;20040;-60
2021/08/17 02:36:00;;;;;;;12.82;4.60;;;;;;;;;;5070099;28;20028;-60
2021/08/17 02:38:25;;;;;;;12.65;4.85;;;;;;;;;;5067014;28;20281;-60
2021/08/17 02:40:51;;;;;;;12.75;4.93;;;;;;;;;;5067020;28;20210;-60
2021/08/17 02:43:19;;;;;;;11.30;4.70;;;;;;;;;;5065229;28;20113;-61
2021/08/17 02:45:44;;;;;;;12.63;4.57;;;;;;;;;;5072565;28;20039;-61
2021/08/17 02:48:10;;;;;;;12.52;4.70;;;;;;;;;;5064105;28;20032;-60
2021/08/17 02:50:35;;;;;;;10.25;4.78;;;;;;;;;;5068456;28;20032;-60
2021/08/17 02:53:01;;;;;;;13.20;4.82;;;;;;;;;;5066338;28;20064;-60
2021/08/17 02:55:26;;;;;;;13.15;4.10;;;;;;;;;;5066803;28;20055;-60
2021/08/17 02:57:57;;;;;;;14.98;4.93;;;;;;;;;;5065770;28;20028;-60
2021/08/17 03:00:23;;;;;;;10.70;4.15;;;;;;;;;;5069846;28;20475;-58
2021/08/17 03:02:49;;;;;;;10.18;4.40;;;;;;;;;;5065843;28;20039;-61
2021/08/17 03:05:14;;;;;;;15.07;4.60;;;;;;;;;;5067159;28;20024;-60
2021/08/17 03:07:55;;;;;;;11.20;5.15;;;;;;;;;;5066918;28;20037;-60
2021/08/17 03:10:22;;;;;;;10.48;4.32;;;;;;;;;;5063266;28;20706;-60
2021/08/17 03:12:48;;;;;;;11.65;4.10;;;;;;;;;;5065450;28;20035;-60
2021/08/17 03:15:14;;;;;;;12.32;4.47;;;;;;;;;;5067151;28;20036;-60
2021/08/17 03:17:40;;;;;;;11.75;4.75;;;;;;;;;;5066168;28;20493;-61
2021/08/17 03:20:10;;;;;;;9.20;4.03;;;;;;;;;;5074418;28;20027;-60
2021/08/17 03:22:36;;;;;;;11.73;5.10;;;;;;;;;;5069286;28;20383;-60
2021/08/17 03:25:06;;;;;;;8.32;4.43;;;;;;;;;;5065706;28;20020;-60
2021/08/17 03:27:32;;;;;;;10.70;4.22;;;;;;;;;;5067651;28;20236;-61
2021/08/17 03:29:57;;;;;;;11.23;4.57;;;;;;;;;;5069412;28;20028;-60
2021/08/17 03:32:24;;;;;;;13.95;4.95;;;;;;;;;;5065350;28;20020;-60
2021/08/17 03:34:50;;;;;;;11.13;4.60;;;;;;;;;;5068566;28;20031;-60
2021/08/17 03:37:15;;;;;;;14.93;4.70;;;;;;;;;;5062764;28;20032;-60
2021/08/17 03:39:41;;;;;;;10.65;4.75;;;;;;;;;;5066679;28;20024;-60
2021/08/17 03:42:07;;;;;;;12.48;4.00;;;;;;;;;;5064699;28;20020;-60
2021/08/17 03:44:32;;;;;;;13.43;4.80;;;;;;;;;;5064411;28;20035;-61
2021/08/17 03:46:58;;;;;;;12.50;4.63;;;;;;;;;;5065965;28;20367;-60
2021/08/17 03:49:23;;;;;;;14.63;4.60;;;;;;;;;;5067627;28;20028;-60
2021/08/17 03:51:48;;;;;;;11.18;4.72;;;;;;;;;;5063450;28;20040;-60
2021/08/17 03:54:14;;;;;;;14.20;4.88;;;;;;;;;;5064535;28;20020;-60
2021/08/17 03:56:39;;;;;;;12.25;4.43;;;;;;;;;;5066691;28;20020;-60
2021/08/17 03:59:05;;;;;;;15.52;4.32;;;;;;;;;;5071255;28;20035;-60
2021/08/17 04:01:30;;;;;;;14.32;5.10;;;;;;;;;;5068549;28;20073;-61
2021/08/17 04:03:56;;;;;;;14.13;5.15;;;;;;;;;;5065501;28;20075;-60
2021/08/17 04:06:21;;;;;;;15.65;4.65;;;;;;;;;;5066056;28;20025;-60
2021/08/17 04:08:48;;;;;;;11.43;4.82;;;;;;;;;;5065540;28;20119;-60
2021/08/17 04:11:13;;;;;;;14.25;5.13;;;;;;;;;;5068388;28;20041;-60
2021/08/17 04:13:40;;;;;;;14.43;4.28;;;;;;;;;;5065947;28;20432;-60
2021/08/17 04:16:06;;;;;;;13.40;4.88;;;;;;;;;;5065361;28;20381;-60
2021/08/17 04:18:31;;;;;;;12.88;4.68;;;;;;;;;;5068009;28;20099;-60
2021/08/17 04:20:57;;;;;;;11.88;5.15;;;;;;;;;;5070325;28;20115;-60
2021/08/17 04:23:22;;;;;;;10.38;4.97;;;;;;;;;;5070907;28;20064;-60
2021/08/17 04:25:48;;;;;;;12.85;4.65;;;;;;;;;;5066834;28;20196;-60
2021/08/17 04:28:14;;;;;;;16.42;5.25;;;;;;;;;;5064790;28;20032;-61
2021/08/17 04:30:40;;;;;;;18.55;5.97;;;;;;;;;;5066896;28;20024;-60
2021/08/17 04:33:05;;;;;;;13.38;4.82;;;;;;;;;;5066730;28;20020;-60
2021/08/17 04:35:31;;;;;;;13.80;5.38;;;;;;;;;;5065042;28;20123;-60
2021/08/17 04:37:56;;;;;;;14.23;4.57;;;;;;;;;;5064106;28;20032;-60
2021/08/17 04:40:22;;;;;;;13.85;5.10;;;;;;;;;;5066915;28;20036;-60
2021/08/17 04:42:47;;;;;;;14.95;5.22;;;;;;;;;;5064845;28;20028;-60
2021/08/17 04:45:13;;;;;;;19.52;5.90;;;;;;;;;;5067291;28;20127;-60
2021/08/17 04:47:47;;;;;;;13.77;5.80;;;;;;;;;;5066533;28;20155;-60
2021/08/17 04:50:13;;;;;;;13.68;5.40;;;;;;;;;;5069824;28;20020;-59
2021/08/17 04:52:39;;;;;;;15.00;5.15;;;;;;;;;;5070882;28;20031;-60
2021/08/17 04:55:05;;;;;;;15.55;5.22;;;;;;;;;;5071007;28;20047;-60
2021/08/17 04:57:30;;;;;;;19.90;8.07;;;;;;;;;;5067749;28;20032;-60
2021/08/17 04:59:55;;;;;;;25.45;8.05;;;;;;;;;;5068440;28;20029;-59
2021/08/17 05:02:21;;;;;;;28.92;10.45;;;;;;;;;;5069697;28;20395;-60
2021/08/17 05:04:46;;;;;;;12.80;5.57;;;;;;;;;;5067600;28;20065;-60
2021/08/17 05:07:12;;;;;;;13.15;5.30;;;;;;;;;;5067598;28;20035;-59
2021/08/17 05:09:37;;;;;;;19.48;7.35;;;;;;;;;;5065120;28;20513;-57
2021/08/17 05:12:03;;;;;;;14.77;6.78;;;;;;;;;;5066623;28;20029;-59
2021/08/17 05:14:28;;;;;;;21.58;8.55;;;;;;;;;;5067716;28;20028;-60
2021/08/17 05:16:54;;;;;;;15.13;6.25;;;;;;;;;;5063653;28;20098;-60
2021/08/17 05:19:19;;;;;;;15.20;7.70;;;;;;;;;;5067210;28;20382;-60
2021/08/17 05:21:45;;;;;;;14.68;6.45;;;;;;;;;;5063677;28;20039;-60
2021/08/17 05:24:10;;;;;;;11.65;5.88;;;;;;;;;;5067400;28;20474;-60
2021/08/17 05:26:36;;;;;;;14.27;5.78;;;;;;;;;;5065448;28;20020;-59
2021/08/17 05:29:01;;;;;;;17.45;5.75;;;;;;;;;;5068686;28;20055;-60
2021/08/17 05:31:27;;;;;;;16.35;5.47;;;;;;;;;;5064983;28;20036;-60
2021/08/17 05:33:52;;;;;;;20.63;5.78;;;;;;;;;;5064206;28;20033;-60
2021/08/17 05:36:17;;;;;;;14.13;5.70;;;;;;;;;;5062935;28;20024;-59
2021/08/17 05:38:43;;;;;;;13.18;5.10;;;;;;;;;;5066637;28;20047;-60
2021/08/17 05:41:08;;;;;;;17.15;6.07;;;;;;;;;;5071079;28;20017;-60
2021/08/17 05:43:34;;;;;;;19.58;6.50;;;;;;;;;;5065852;28;20032;-60
2021/08/17 05:46:03;;;;;;;24.42;8.20;;;;;;;;;;5065151;28;20085;-58
2021/08/17 05:48:30;;;;;;;17.88;5.80;;;;;;;;;;5064025;28;20050;-59
2021/08/17 05:50:55;;;;;;;16.02;7.10;;;;;;;;;;5064578;28;20479;-60
2021/08/17 05:53:20;;;;;;;18.30;7.38;;;;;;;;;;5065516;28;20059;-59
2021/08/17 05:55:46;;;;;;;27.92;11.30;;;;;;;;;;5065039;28;20034;-60
2021/08/17 05:58:11;;;;;;;12.75;4.95;;;;;;;;;;5063484;28;20103;-60
2021/08/17 06:00:37;;;;;;;13.25;5.50;;;;;;;;;;5046138;28;20423;-60
2021/08/17 06:03:02;;;;;;;17.23;6.45;;;;;;;;;;5066884;28;20044;-60
2021/08/17 06:05:28;;;;;;;14.60;6.15;;;;;;;;;;5067416;28;20029;-60
2021/08/17 06:07:53;;;;;;;13.43;5.90;;;;;;;;;;5065226;28;20040;-60
2021/08/17 06:10:19;;;;;;;16.35;5.30;;;;;;;;;;5067715;28;20040;-60
2021/08/17 06:12:45;;;;;;;14.18;5.38;;;;;;;;;;5068191;28;20028;-60
2021/08/17 06:15:12;;;;;;;18.08;6.45;;;;;;;;;;5067686;28;20028;-60
2021/08/17 06:17:38;;;;;;;13.20;5.60;;;;;;;;;;5069732;28;20028;-60
2021/08/17 06:20:08;;;;;;;15.18;5.50;;;;;;;;;;5066732;28;20024;-60
2021/08/17 06:22:34;;;;;;;17.20;6.32;;;;;;;;;;5069958;28;20085;-60
2021/08/17 06:25:00;;;;;;;11.65;5.45;;;;;;;;;;5068806;28;20479;-60
2021/08/17 06:27:25;;;;;;;12.77;5.75;;;;;;;;;;5065269;28;20142;-60
2021/08/17 06:29:51;;;;;;;15.27;6.22;;;;;;;;;;5063275;28;20032;-60
2021/08/17 06:32:19;;;;;;;14.30;5.97;;;;;;;;;;5066783;28;20035;-60
2021/08/17 06:34:45;;;;;;;17.63;5.68;;;;;;;;;;5068825;28;20044;-60
2021/08/17 06:37:10;;;;;;;12.45;5.55;;;;;;;;;;5067015;28;20085;-60
2021/08/17 06:39:35;;;;;;;10.60;4.85;;;;;;;;;;5066387;28;20048;-60
2021/08/17 06:42:01;;;;;;;12.23;5.70;;;;;;;;;;5066178;28;20039;-60
2021/08/17 06:44:26;;;;;;;11.40;5.18;;;;;;;;;;5064573;28;20028;-60
2021/08/17 06:46:52;;;;;;;13.40;5.78;;;;;;;;;;5062256;28;20068;-60
2021/08/17 06:49:17;;;;;;;15.52;5.57;;;;;;;;;;5065630;28;20395;-60
2021/08/17 06:51:42;;;;;;;13.30;5.53;;;;;;;;;;5064367;28;20115;-61
2021/08/17 06:54:08;;;;;;;13.85;5.40;;;;;;;;;;5061877;28;20491;-60
2021/08/17 06:56:33;;;;;;;13.27;6.13;;;;;;;;;;5061252;28;20044;-60
2021/08/17 06:58:59;;;;;;;13.52;5.75;;;;;;;;;;5060027;28;20063;-60
2021/08/17 07:01:24;;;;;;;18.25;5.90;;;;;;;;;;5062705;28;20077;-60
2021/08/17 07:03:50;;;;;;;16.15;5.97;;;;;;;;;;5063950;28;20106;-60
2021/08/17 07:06:15;;;;;;;11.40;5.47;;;;;;;;;;5070048;28;20040;-60
2021/08/17 07:08:40;;;;;;;16.17;6.00;;;;;;;;;;5064942;28;20259;-60
2021/08/17 07:11:07;;;;;;;16.08;6.05;;;;;;;;;;5068428;28;20023;-60
2021/08/17 07:13:33;;;;;;;13.90;5.88;;;;;;;;;;5066576;28;20036;-60
2021/08/17 07:15:58;;;;;;;12.32;5.40;;;;;;;;;;5071580;28;20031;-61
2021/08/17 07:18:24;;;;;;;13.07;5.75;;;;;;;;;;5071995;28;20029;-60
2021/08/17 07:20:50;;;;;;;13.80;5.65;;;;;;;;;;5067811;28;20024;-60
2021/08/17 07:23:15;;;;;;;16.23;5.80;;;;;;;;;;5068680;28;20030;-60
2021/08/17 07:25:41;;;;;;;13.85;5.88;;;;;;;;;;5068248;28;20028;-60
2021/08/17 07:28:09;;;;;;;15.15;6.25;;;;;;;;;;5068590;28;20359;-60
2021/08/17 07:30:35;;;;;;;16.20;6.00;;;;;;;;;;5066004;28;20041;-60
2021/08/17 07:33:00;;;;;;;14.13;5.53;;;;;;;;;;5065652;28;20028;-60
2021/08/17 07:35:26;;;;;;;19.35;6.50;;;;;;;;;;5068258;28;20086;-60
2021/08/17 07:37:51;;;;;;;19.40;6.22;;;;;;;;;;5063547;28;20383;-60
2021/08/17 07:40:17;;;;;;;14.60;6.40;;;;;;;;;;5065053;28;20118;-60
2021/08/17 07:42:45;;;;;;;13.98;6.03;;;;;;;;;;5072010;28;20690;-60
2021/08/17 07:45:11;;;;;;;16.90;6.97;;;;;;;;;;5067413;28;20024;-60
2021/08/17 07:47:38;;;;;;;16.35;7.50;;;;;;;;;;5065637;28;20540;-60
2021/08/17 07:50:05;;;;;;;15.23;6.05;;;;;;;;;;5063923;28;20498;-60
2021/08/17 07:52:34;;;;;;;15.98;5.88;;;;;;;;;;5065114;28;20021;-60
2021/08/17 07:55:00;;;;;;;16.60;6.45;;;;;;;;;;5065327;28;20099;-60
2021/08/17 07:57:26;;;;;;;17.80;6.70;;;;;;;;;;5065184;28;20060;-60
2021/08/17 07:59:51;;;;;;;18.55;7.50;;;;;;;;;;5065959;28;20633;-60
2021/08/17 08:02:16;;;;;;;14.35;6.28;;;;;;;;;;5065663;28;20051;-60
2021/08/17 08:04:42;;;;;;;15.15;6.95;;;;;;;;;;5065398;28;20406;-60
2021/08/17 08:07:07;;;;;;;20.55;6.63;;;;;;;;;;5066550;28;20153;-59
2021/08/17 08:09:32;;;;;;;16.10;7.25;;;;;;;;;;5063991;28;20032;-60
2021/08/17 08:11:58;;;;;;;17.50;7.13;;;;;;;;;;5066296;28;20078;-60
2021/08/17 08:14:23;;;;;;;15.48;6.85;;;;;;;;;;5067795;28;20029;-60
2021/08/17 08:16:49;;;;;;;15.65;7.32;;;;;;;;;;5069391;28;20036;-60
2021/08/17 08:19:14;;;;;;;16.83;7.05;;;;;;;;;;5070733;28;20044;-60
2021/08/17 08:21:39;;;;;;;18.08;7.15;;;;;;;;;;5050788;28;20502;-60
2021/08/17 08:24:05;;;;;;;16.05;6.22;;;;;;;;;;5068360;28;20452;-60
2021/08/17 08:26:30;;;;;;;19.35;8.02;;;;;;;;;;5071567;28;20470;-61
2021/08/17 08:28:55;;;;;;;22.30;7.88;;;;;;;;;;5065922;28;20035;-60
2021/08/17 08:31:21;;;;;;;16.02;6.95;;;;;;;;;;5072259;28;20142;-60
2021/08/17 08:33:48;;;;;;;17.15;7.50;;;;;;;;;;5069377;28;20020;-58
2021/08/17 08:36:13;;;;;;;17.10;7.30;;;;;;;;;;5071268;28;20470;-60
2021/08/17 08:38:39;;;;;;;18.00;7.00;;;;;;;;;;5066987;28;20032;-60
2021/08/17 08:41:04;;;;;;;19.58;7.30;;;;;;;;;;5069732;28;20031;-60
2021/08/17 08:43:30;;;;;;;18.42;7.30;;;;;;;;;;5070414;28;20040;-61
2021/08/17 08:45:56;;;;;;;16.02;6.97;;;;;;;;;;5070497;28;20281;-60
2021/08/17 08:48:22;;;;;;;18.30;7.43;;;;;;;;;;5072447;28;20494;-60
2021/08/17 08:50:49;;;;;;;18.38;7.25;;;;;;;;;;5072618;28;20365;-60
2021/08/17 08:53:16;;;;;;;20.27;7.32;;;;;;;;;;5072235;28;20279;-60
2021/08/17 08:55:43;;;;;;;19.50;7.30;;;;;;;;;;5066187;28;20070;-60
2021/08/17 08:58:08;;;;;;;16.60;6.78;;;;;;;;;;5069052;28;20282;-60
2021/08/17 09:00:34;;;;;;;18.73;7.65;;;;;;;;;;5060855;28;20027;-60
2021/08/17 09:02:59;;;;;;;21.67;7.20;;;;;;;;;;5072350;28;20056;-60
2021/08/17 09:05:24;;;;;;;17.77;7.55;;;;;;;;;;5069082;28;20130;-60
2021/08/17 09:07:51;;;;;;;17.52;7.75;;;;;;;;;;5065188;28;20048;-60
2021/08/17 09:10:23;;;;;;;15.20;6.75;;;;;;;;;;5071023;28;20479;-60
2021/08/17 09:12:52;;;;;;;18.27;7.47;;;;;;;;;;5066718;28;20489;-60
2021/08/17 09:15:29;;;;;;;16.70;7.28;;;;;;;;;;5062066;28;20024;-59
2021/08/17 09:18:03;;;;;;;16.30;6.75;;;;;;;;;;5065316;28;20044;-60
2021/08/17 09:20:32;;;;;;;20.25;7.70;;;;;;;;;;5068204;28;20029;-60
2021/08/17 09:22:58;;;;;;;18.58;7.22;;;;;;;;;;5063219;28;20454;-60
2021/08/17 09:25:32;;;;;;;16.60;7.03;;;;;;;;;;5062142;28;20120;-60
2021/08/17 09:28:27;;;;;;;15.63;7.03;;;;;;;;;;5064127;28;20441;-60
2021/08/17 09:30:53;;;;;;;17.95;6.95;;;;;;;;;;5067835;28;20469;-60
2021/08/17 09:33:18;;;;;;;13.68;6.53;;;;;;;;;;5066108;28;20029;-60
2021/08/17 09:35:44;;;;;;;22.95;7.95;;;;;;;;;;5069112;28;20021;-60
2021/08/17 09:38:12;;;;;;;18.17;7.72;;;;;;;;;;5064545;28;20082;-60
2021/08/17 09:40:38;;;;;;;15.32;6.72;;;;;;;;;;5063888;28;20056;-60
2021/08/17 09:43:14;;;;;;;17.27;7.20;;;;;;;;;;5069845;28;20092;-60
2021/08/17 09:45:41;;;;;;;19.65;6.68;;;;;;;;;;5068381;28;20129;-60
2021/08/17 09:48:06;;;;;;;18.50;7.03;;;;;;;;;;5065345;28;20051;-60
2021/08/17 09:50:34;;;;;;;17.98;7.43;;;;;;;;;;5069530;28;20523;-60
2021/08/17 09:53:14;;;;;;;16.63;7.15;;;;;;;;;;5067816;28;20029;-60
2021/08/17 09:55:48;;;;;;;19.52;6.85;;;;;;;;;;5067294;28;20094;-60
2021/08/17 09:58:18;;;;;;;20.15;7.93;;;;;;;;;;5065655;28;20031;-60
2021/08/17 10:00:45;;;;;;;18.88;7.25;;;;;;;;;;5065733;28;20051;-60
2021/08/17 10:03:11;;;;;;;19.48;7.70;;;;;;;;;;5066614;28;20039;-60
2021/08/17 10:05:38;;;;;;;18.75;7.18;;;;;;;;;;5067602;28;20324;-60
2021/08/17 10:08:05;;;;;;;19.15;7.63;;;;;;;;;;5071666;28;20024;-60
2021/08/17 10:10:31;;;;;;;18.52;7.90;;;;;;;;;;5066111;28;20197;-61
2021/08/17 10:12:57;;;;;;;18.60;7.57;;;;;;;;;;5062909;28;20137;-60
2021/08/17 10:15:23;;;;;;;18.80;7.28;;;;;;;;;;5071123;28;20041;-60
2021/08/17 10:17:48;;;;;;;20.80;7.82;;;;;;;;;;5066349;28;20051;-60
2021/08/17 10:20:16;;;;;;;16.83;7.28;;;;;;;;;;5060578;28;20051;-60
2021/08/17 10:22:42;;;;;;;23.35;7.80;;;;;;;;;;5063772;28;20040;-60
2021/08/17 10:25:12;;;;;;;19.77;7.72;;;;;;;;;;5066898;28;20028;-60
2021/08/17 10:27:37;;;;;;;17.98;7.97;;;;;;;;;;5060737;28;20035;-63
2021/08/17 10:30:10;;;;;;;18.83;7.72;;;;;;;;;;5064908;28;20528;-60
2021/08/17 10:32:36;;;;;;;20.90;7.47;;;;;;;;;;5066276;28;20107;-60
2021/08/17 10:35:02;;;;;;;16.30;7.65;;;;;;;;;;5067156;28;20104;-61
2021/08/17 10:37:27;;;;;;;20.20;7.78;;;;;;;;;;5065132;28;20464;-60
2021/08/17 10:39:53;;;;;;;18.35;7.88;;;;;;;;;;5067421;28;20036;-60
2021/08/17 10:42:25;;;;;;;16.35;7.50;;;;;;;;;;5071311;28;20047;-60
2021/08/17 10:44:50;;;;;;;23.55;7.95;;;;;;;;;;5066040;28;20037;-60
2021/08/17 10:47:35;;;;;;;18.75;7.90;;;;;;;;;;5069179;28;20062;-60
2021/08/17 10:50:01;;;;;;;21.75;8.57;;;;;;;;;;5062410;28;20020;-60
2021/08/17 10:52:30;;;;;;;15.27;7.18;;;;;;;;;;5065199;28;20039;-59
2021/08/17 10:55:24;;;;;;;16.80;7.40;;;;;;;;;;5063949;28;20028;-59
2021/08/17 10:58:02;;;;;;;37.92;14.02;;;;;;;;;;5060725;28;20650;-59
2021/08/17 11:00:56;;;;;;;59.97;21.47;;;;;;;;;;5068948;28;20107;-59
2021/08/17 11:03:37;;;;;;;76.43;24.60;;;;;;;;;;5069479;28;20355;-59
2021/08/17 11:06:03;;;;;;;37.97;14.07;;;;;;;;;;5064369;28;20564;-59
2021/08/17 11:08:31;;;;;;;34.40;12.07;;;;;;;;;;5068695;28;20089;-59
2021/08/17 11:11:02;;;;;;;29.73;10.60;;;;;;;;;;5066430;28;20508;-59
2021/08/17 11:13:28;;;;;;;22.73;8.68;;;;;;;;;;5064250;28;20394;-59
2021/08/17 11:16:06;;;;;;;17.33;7.53;;;;;;;;;;5071446;28;20035;-59
2021/08/17 11:18:54;;;;;;;19.23;7.87;;;;;;;;;;5065323;28;20170;-59
2021/08/17 11:21:29;;;;;;;18.45;8.70;;;;;;;;;;5063995;28;20024;-59
2021/08/17 11:24:27;;;;;;;18.50;7.70;;;;;;;;;;5066188;28;20031;-59
2021/08/17 11:26:55;;;;;;;18.85;7.45;;;;;;;;;;5047373;28;20044;-58
2021/08/17 11:29:42;;;;;;;18.88;7.85;;;;;;;;;;5064154;28;20112;-59
2021/08/17 11:32:11;;;;;;;18.88;7.68;;;;;;;;;;5056707;28;20040;-59
2021/08/17 11:34:39;;;;;;;17.67;8.38;;;;;;;;;;5060390;28;20098;-58
2021/08/17 11:37:11;;;;;;;22.00;7.78;;;;;;;;;;5061594;28;20486;-59
2021/08/17 11:39:43;;;;;;;17.33;7.65;;;;;;;;;;5065591;28;20112;-59
2021/08/17 11:42:23;;;;;;;21.88;8.43;;;;;;;;;;5062506;28;20017;-59
2021/08/17 11:45:12;;;;;;;22.40;8.45;;;;;;;;;;5063775;28;20762;-59
2021/08/17 11:47:40;;;;;;;15.85;7.68;;;;;;;;;;5056230;28;20491;-59
2021/08/17 11:50:10;;;;;;;17.38;8.02;;;;;;;;;;5066172;28;20115;-59
2021/08/17 11:52:53;;;;;;;26.17;8.27;;;;;;;;;;5065706;28;20031;-59
2021/08/17 11:55:20;;;;;;;22.33;8.57;;;;;;;;;;5066571;28;20039;-59
2021/08/17 11:57:51;;;;;;;17.67;8.07;;;;;;;;;;5065784;28;20032;-59
2021/08/17 12:00:25;;;;;;;19.85;8.63;;;;;;;;;;5065270;28;20032;-59
2021/08/17 12:02:59;;;;;;;23.75;8.50;;;;;;;;;;5068750;28;20635;-59
2021/08/17 12:05:26;;;;;;;21.70;8.45;;;;;;;;;;5063675;28;20067;-59
2021/08/17 12:07:53;;;;;;;20.52;8.75;;;;;;;;;;5068954;28;20028;-59
2021/08/17 12:10:21;;;;;;;18.60;8.57;;;;;;;;;;5066980;28;20505;-59
2021/08/17 12:12:56;;;;;;;25.27;9.63;;;;;;;;;;5065375;28;20069;-59
2021/08/17 12:15:46;;;;;;;17.95;8.68;;;;;;;;;;5065770;28;20056;-59
2021/08/17 12:18:17;;;;;;;23.05;8.20;;;;;;;;;;5064187;28;20031;-59
2021/08/17 12:20:49;;;;;;;19.13;7.88;;;;;;;;;;5065503;28;20587;-59
2021/08/17 12:23:23;;;;;;;20.52;8.32;;;;;;;;;;5060914;28;20423;-59
2021/08/17 12:25:52;;;;;;;20.13;8.60;;;;;;;;;;5064555;28;20055;-59
2021/08/17 12:28:32;;;;;;;20.27;9.13;;;;;;;;;;5061313;28;20050;-59
2021/08/17 12:31:19;;;;;;;18.55;8.10;;;;;;;;;;5062388;28;20109;-59
2021/08/17 12:33:57;;;;;;;18.98;7.97;;;;;;;;;;5064270;28;20028;-59
2021/08/17 12:36:23;;;;;;;18.42;8.70;;;;;;;;;;5062301;28;20025;-59
2021/08/17 12:38:50;;;;;;;19.80;8.73;;;;;;;;;;5061070;28;20024;-60
2021/08/17 12:41:33;;;;;;;19.50;8.27;;;;;;;;;;5064739;28;20025;-59
2021/08/17 12:43:59;;;;;;;19.98;9.20;;;;;;;;;;5065066;28;20043;-61
2021/08/17 12:46:25;;;;;;;20.95;9.27;;;;;;;;;;5066479;28;20054;-61
2021/08/17 12:48:50;;;;;;;19.58;8.60;;;;;;;;;;5063491;28;20020;-62
2021/08/17 12:51:21;;;;;;;19.13;9.38;;;;;;;;;;5062498;28;20483;-61
2021/08/17 12:53:47;;;;;;;19.70;8.23;;;;;;;;;;5065292;28;20123;-62
2021/08/17 12:56:13;;;;;;;20.42;8.43;;;;;;;;;;5062854;28;21645;-61
2021/08/17 12:58:38;;;;;;;16.30;7.40;;;;;;;;;;5066843;28;20089;-62
2021/08/17 13:01:04;;;;;;;17.15;7.55;;;;;;;;;;5062795;28;20493;-64
2021/08/17 13:03:29;;;;;;;18.25;7.60;;;;;;;;;;5063188;28;20037;-61
2021/08/17 13:05:54;;;;;;;19.15;8.55;;;;;;;;;;5061219;28;20059;-61
2021/08/17 13:08:20;;;;;;;17.05;7.70;;;;;;;;;;5063662;28;20125;-62
2021/08/17 13:10:45;;;;;;;17.25;7.85;;;;;;;;;;5064579;28;20043;-60
2021/08/17 13:13:11;;;;;;;20.00;8.32;;;;;;;;;;5065466;28;20052;-62
2021/08/17 13:15:36;;;;;;;21.25;8.38;;;;;;;;;;5068192;28;20122;-62
2021/08/17 13:18:02;;;;;;;21.60;8.65;;;;;;;;;;5066340;28;20025;-61
2021/08/17 13:20:27;;;;;;;16.63;8.07;;;;;;;;;;5066282;28;20033;-61
2021/08/17 13:22:53;;;;;;;19.30;8.40;;;;;;;;;;5068462;28;20067;-61
2021/08/17 13:25:19;;;;;;;19.73;7.38;;;;;;;;;;5067748;28;20082;-61
2021/08/17 13:27:45;;;;;;;19.35;8.23;;;;;;;;;;5069621;28;20051;-62
2021/08/17 13:30:11;;;;;;;21.23;8.00;;;;;;;;;;5071193;28;20047;-61
2021/08/17 13:32:37;;;;;;;18.40;8.18;;;;;;;;;;5069110;28;20056;-62
2021/08/17 13:35:04;;;;;;;17.70;7.53;;;;;;;;;;5064540;28;20091;-62
2021/08/17 13:37:29;;;;;;;19.65;8.65;;;;;;;;;;5065476;28;20082;-61
2021/08/17 13:39:55;;;;;;;22.13;8.63;;;;;;;;;;5064988;28;20032;-61
2021/08/17 13:42:23;;;;;;;18.70;8.18;;;;;;;;;;5069670;28;20560;-61
2021/08/17 13:44:49;;;;;;;19.27;7.73;;;;;;;;;;5070408;28;20036;-61
2021/08/17 13:47:15;;;;;;;18.42;7.65;;;;;;;;;;5068546;28;20039;-61
2021/08/17 13:49:40;;;;;;;16.30;7.30;;;;;;;;;;5069673;28;20028;-61
2021/08/17 13:52:06;;;;;;;22.25;7.63;;;;;;;;;;5067148;28;20036;-62
2021/08/17 13:54:32;;;;;;;20.33;8.30;;;;;;;;;;5070504;28;20482;-62
2021/08/17 13:56:57;;;;;;;15.80;6.70;;;;;;;;;;5068132;28;20402;-62
2021/08/17 13:59:23;;;;;;;18.35;7.78;;;;;;;;;;5066261;28;20032;-62
2021/08/17 14:01:49;;;;;;;17.50;7.80;;;;;;;;;;5065099;28;20024;-61
2021/08/17 14:04:16;;;;;;;17.35;8.25;;;;;;;;;;5066285;28;20121;-62
2021/08/17 14:06:42;;;;;;;18.10;7.63;;;;;;;;;;5068277;28;20028;-61
2021/08/17 14:09:09;;;;;;;22.27;8.45;;;;;;;;;;5066893;28;20020;-62
2021/08/17 14:11:36;;;;;;;19.92;8.20;;;;;;;;;;5072394;28;20020;-62
2021/08/17 14:14:04;;;;;;;19.52;7.63;;;;;;;;;;5066278;28;20031;-61
2021/08/17 14:16:30;;;;;;;18.38;7.32;;;;;;;;;;5068667;28;20028;-62
2021/08/17 14:18:55;;;;;;;19.17;7.78;;;;;;;;;;5069942;28;20127;-61
2021/08/17 14:21:22;;;;;;;17.38;7.22;;;;;;;;;;5069234;28;20024;-61
2021/08/17 14:23:49;;;;;;;16.50;7.40;;;;;;;;;;5065408;28;20033;-62
2021/08/17 14:26:34;;;;;;;17.02;7.20;;;;;;;;;;5066528;28;20032;-62
2021/08/17 14:29:01;;;;;;;16.35;7.05;;;;;;;;;;5067945;28;20048;-62
2021/08/17 14:31:28;;;;;;;18.50;8.15;;;;;;;;;;5072508;28;20102;-61
2021/08/17 14:33:54;;;;;;;16.20;7.38;;;;;;;;;;5070001;28;20476;-62